• Join FlightAware (Why Join?)
  • Login
  • US Flag 
09:11AM EDT


 

Airport Tracker/Info


-or-


 

Live Flight TrackerFlight Track Log ✈ KAL1338 ✈ 14-Jun-2014 ✈ RKJY / RSU - RKSS / GMP

Flight Track Log - Related Links

Times and Time Zones

All times are in EDT time to prevent confusion due to time zone crossing. See the KAL1338 flight status page for this flight to view local times or setup timezone preferences in your user account.

Time Position Orientation Groundspeed Altitude Reporting Facility
EDT Latitude Longitude Course Direction KTS MPH feet Rate Location/Type
05:03AM 35.1346 127.5287 346° North  Level Estimated
05:04AM 35.2083 127.5069 346° North  Level Estimated
05:05AM 35.2820 127.4851 346° North  Level Estimated
05:06AM 35.3557 127.4633 346° North  Level Estimated
05:07AM 35.4293 127.4414 346° North  Level Estimated
05:07AM 35.1122 127.3127 308° West 372 428 22,100  Level FlightAware ADS-B (RKSO / OSN)
05:07AM 35.1261 127.2769 285° West 374 430 22,900 2,580 Climbing FlightAware ADS-B (RKSO / OSN)
05:08AM 35.1284 127.2339 269° West 378 435 23,800 2,040 Climbing FlightAware ADS-B (RKSO / OSN)
05:08AM 35.1321 127.1594 293° West 385 443 25,000 1,200 Climbing FlightAware ADS-B (RKSO / OSN)
05:09AM 35.1548 127.1160 316° Northwest 393 452 25,000  Level FlightAware ADS-B (RKSO / OSN)
05:09AM 35.1847 127.0919 335° Northwest 405 466 25,000  Level FlightAware ADS-B (RKSO / OSN)
05:10AM 35.2553 127.0516 335° Northwest 401 461 25,000  Level FlightAware ADS-B (RKSO / OSN)
05:10AM 35.3158 127.0177 343° North 403 464 25,000  Level FlightAware ADS-B (RKSO / OSN)
05:11AM 35.4203 127.0042 360° North 413 475 25,000  Level FlightAware ADS-B (RKSO / OSN)
05:12AM 35.4974 127.0034 359° North 410 472 25,000  Level FlightAware ADS-B (RKSO / OSN)
05:13AM 35.5661 127.0028 360° North 408 470 25,000  Level FlightAware ADS-B (RKSO / OSN)
05:13AM 35.6427 127.0021 359° North 407 468 25,000  Level FlightAware ADS-B (RKSO / OSN)
05:14AM 35.7232 127.0012 360° North 406 467 25,000  Level FlightAware ADS-B (RKSO / OSN)
05:15AM 35.7974 127.0004 360° North 406 467 25,000  Level FlightAware ADS-B (RKSO / OSN)
05:15AM 35.8699 126.9998 360° North 405 466 25,000  Level FlightAware ADS-B (RKSO / OSN)
05:16AM 35.9486 126.9990 360° North 405 466 25,000  Level FlightAware ADS-B (RKSO / OSN)
05:17AM 36.0230 126.9982 360° North 405 466 25,000  Level FlightAware ADS-B (RKSO / OSN)
05:17AM 36.0947 126.9976 360° North 406 467 25,000  Level FlightAware ADS-B (RKSO / OSN)
05:18AM 36.1739 126.9968 359° North 407 468 25,000  Level FlightAware ADS-B (RKSO / OSN)
05:19AM 36.2409 126.9960 359° North 407 468 25,000  Level FlightAware ADS-B (RKSO / OSN)
05:19AM 36.3229 126.9952 360° North 407 468 25,000 -840 Level FlightAware ADS-B (RKSO / OSN)
05:20AM 36.3995 126.9945 359° North 393 452 23,900 -2,160 Descending FlightAware ADS-B (RKSO / OSN)
05:21AM 36.4632 126.9937 360° North 382 440 22,300 -2,340 Descending FlightAware ADS-B (RKSO / OSN)
05:21AM 36.5367 126.9955 North 376 433 20,800 -2,100 Descending FlightAware ADS-B (RKSO / OSN)
05:22AM 36.6086 127.0087 North 365 420 19,400 -2,220 Descending FlightAware ADS-B (RKSO / OSN)
05:23AM 36.6718 127.0202 North 358 412 17,900 -2,400 Descending FlightAware ADS-B (RKSO / OSN)
05:23AM 36.7326 127.0314 North 354 407 16,400 -2,280 Descending FlightAware ADS-B (RKSO / OSN)
05:24AM 36.8021 127.0442 North 346 398 14,900 -2,160 Descending FlightAware ADS-B (RKSO / OSN)
05:25AM 36.8643 127.0555 North 338 389 13,400 -1,680 Descending FlightAware ADS-B (RKSO / OSN)
05:26AM 36.9461 127.0708 North 302 348 12,200 -1,440 Descending FlightAware ADS-B (RKSO / OSN)
05:26AM 37.0091 127.0822 North 295 339 11,100 -1,740 Descending FlightAware ADS-B (RKSO / OSN)
05:27AM 37.0645 127.0924 North 293 337 9,900 -1,620 Descending FlightAware ADS-B (RKSO / OSN)
05:27AM 37.0902 127.0973 North 283 326 9,500 -1,080 Descending FlightAware ADS-B (RKSO / OSN)
05:28AM 37.1142 127.1018 North 273 314 9,200 -1,200 Descending FlightAware ADS-B (RKSO / OSN)
05:28AM 37.1409 127.1067 North 269 310 8,700 -1,500 Descending FlightAware ADS-B (RKSO / OSN)
05:28AM 37.1650 127.1112 North 267 307 8,200 -1,500 Descending FlightAware ADS-B (RKSO / OSN)
05:29AM 37.1892 127.1156 North 267 307 7,700 -1,080 Descending FlightAware ADS-B (RKSO / OSN)
05:29AM 37.2130 127.1201 North 254 292 7,500 -480 Descending FlightAware ADS-B (RKSO / OSN)
05:29AM 37.2352 127.1242 North 238 274 7,400 -300 Descending FlightAware ADS-B (RKSO / OSN)
05:30AM 37.2574 127.1283 North 224 258 7,300 -300 Descending FlightAware ADS-B (RKSO / OSN)
05:30AM 37.2770 127.1306 355° North 209 241 7,200 -480 Descending FlightAware ADS-B (RKSO / OSN)
05:30AM 37.2925 127.1207 316° Northwest 203 234 7,000 -780 Descending FlightAware ADS-B (RKSO / OSN)
05:31AM 37.3061 127.1029 314° West 201 231 6,700 -780 Descending FlightAware ADS-B (RKSO / OSN)
05:31AM 37.3186 127.0871 315° West 190 219 6,500 -780 Descending FlightAware ADS-B (RKSO / OSN)
05:31AM 37.3314 127.0716 316° Northwest 192 221 6,200 -1,200 Descending FlightAware ADS-B (RKSO / OSN)
05:32AM 37.3448 127.0552 315° West 197 227 5,700 -1,200 Descending FlightAware ADS-B (RKSO / OSN)
05:32AM 37.3564 127.0404 314° West 194 223 5,400 -900 Descending FlightAware ADS-B (RKSO / OSN)
05:32AM 37.3699 127.0235 316° Northwest 187 215 5,100 -1,080 Descending FlightAware ADS-B (RKSO / OSN)
05:33AM 37.3817 127.0090 315° West 192 221 4,700 -1,140 Descending FlightAware ADS-B (RKSO / OSN)
05:33AM 37.4077 126.9765 315° West 198 228 4,000 -1,080 Descending FlightAware ADS-B (RKSO / OSN)
05:34AM 37.4195 126.9618 316° Northwest 200 230 3,700 -1,200 Descending FlightAware ADS-B (RKSM / SSN)
05:34AM 37.4214 126.9595 315° West 199 229 3,600 -1,320 Descending FlightAware ADS-B (RKSO / OSN)
05:34AM 37.4288 126.9501 315° West 198 228 3,400 -900 Descending FlightAware ADS-B (RKSM / SSN)
05:34AM 37.4344 126.9432 315° West 198 228 3,300 -1,140 Descending FlightAware ADS-B (RKSO / OSN)
05:34AM 37.4394 126.9370 316° Northwest 195 224 3,100 -1,200 Descending FlightAware ADS-B (RKSM / SSN)
05:34AM 37.4471 126.9274 315° West 195 224 2,900 -840 Descending FlightAware ADS-B (RKSO / OSN)
05:34AM 37.4493 126.9246 316° Northwest 195 224 2,900 -1,080 Level FlightAware ADS-B (RKSM / SSN)
05:35AM 37.4579 126.9138 316° Northwest 189 217 2,600 -1,140 Descending FlightAware ADS-B (RKSM / SSN)
05:35AM 37.4583 126.9134 315° West 187 215 2,600 -780 Level FlightAware ADS-B (RKSO / OSN)
05:35AM 37.4677 126.9016 315° West 179 206 2,400 -900 Descending FlightAware ADS-B (RKSM / SSN)
05:35AM 37.4713 126.8972 316° Northwest 174 200 2,300 -840 Descending FlightAware ADS-B (RKSO / OSN)
05:35AM 37.4761 126.8911 315° West 167 192 2,200 -1,200 Descending FlightAware ADS-B (RKSM / SSN)
05:35AM 37.4789 126.8876 315° West 161 185 2,000 -840 Descending FlightAware ADS-B (RKSO / OSN)
05:35AM 37.4840 126.8813 316° Northwest 160 184 2,000 -540 Level FlightAware ADS-B (RKSM / SSN)
05:36AM 37.4914 126.8719 315° West 146 168 1,800 -840 Descending FlightAware ADS-B (RKSM / SSN)
05:36AM 37.4968 126.8652 316° Northwest 142 163 1,600 -960 Descending FlightAware ADS-B (RKSM / SSN)
05:36AM 37.5064 126.8532 316° Northwest 137 158 1,300 -780 Descending FlightAware ADS-B (RKSM / SSN)
05:37AM 37.5156 126.8417 315° West 137 158 1,100 -660 Descending FlightAware ADS-B (RKSM / SSN)
05:37AM 37.5226 126.8328 315° West 140 161 900 -840 Descending FlightAware ADS-B (RKSM / SSN)
05:39AM 37.5583 126.7906 317° Northwest  Level Estimated